Lunenburg, MA

3:56 PM EDT on April 27, 2015 (GMT -0400)
Whalom Lake | | Change Station
CLOSE
Current Station
Personal Weather Station
Location: Lunenburg, MA
Elevation: 548 ft
Nearby Weather Stations

Elev 548 ft 42.57 °N, 71.74 °W | Updated 5 seconds ago

Overcast
Overcast
53.2 °F
Feels Like 53.2 °F
N
19.7
Wind Variable Wind from NNW
Gusts 22.4 mph

Today
High -- | Low -- °F
--% Chance of Precip.
Yesterday
High -- | Low -- °F
Precip. -- in
5:47 AM 7:42 PM
Waxing Gibbous, 67% visible
Pressure 29.57 in
Visibility 10.0 miles
Clouds Overcast 5500 ft
Dew Point 38 °F
Humidity 56%
Rainfall 0.00 in
Snow Depth Not available.
UV 1.0 out of 12
Pollen 10.00 out of 12
Air Quality Not available.
Flu Activity Widespread
METAR KFIT 271852Z AUTO 33012G22KT 10SM OVC055 13/01 A2956 RMK AO2 PK WND 33026/1753 SLP012 T01330011

More Conditions Fewer Conditions

Pressure 29.57 in
Visibility 10.0 miles
Clouds Overcast 5500 ft
Dew Point 38 °F
Humidity 56%
Rainfall 0.00 in
Snow Depth Not available.
UV 1.0 out of 12
Pollen 10.00 out of 12
Air Quality Not available.
Flu Activity Widespread
METAR KFIT 271852Z AUTO 33012G22KT 10SM OVC055 13/01 A2956 RMK AO2 PK WND 33026/1753 SLP012 T01330011

More Conditions Fewer Conditions

10-Day Weather Forecast

Almanac

Astronomy

Apr. 27, 2015 Rise Set
Actual Time
Civil Twilight
Nautical Twilight
Astronomical Twilight
Moon
Length of Visible Light
Length of Day
Tomorrow will be .
, % of the Moon is Illuminated

Today's Extremes

State Highs State Lows

Community

WunderPhotos

Upload Photos

1,817,414 photos uploaded!

WunderBlogs® & News

Nearby

Air Quality

  Air Quality AQ Index Pollutant
Not available.

Snow Depth

Station Depth Elevation

Earthquake Activity

City Distance Mag. Time & Date
Minimum magnitude displayed is 2.5.

Coastal Water Temperatures

Place Temperature

Stations

Nearby Weather Stations

Station Location Temp. Windchill Dew Point Humidity Wind Precip. Elev Updated Type